CheckWX is a tool to help pilots better visualize weather data.  It is not intended as a substitute for an official pre-flight weather briefing.

22:04:08 UTC

VVPQ TAF
Phu Quoc Airport
Duong Dong, Vietnam
TAF VVPQ 201700Z 2018/2118 VRB03KT 9999 SCT017 BECMG 2102/2103 10012KT

Mar-20@
18:00 UTC

Mar-20 @ 18:00 UTC

Mar-21@
02:00 UTC

Mar-21 @ 02:00 UTC

TAF VVPQ 201700Z 2018/2118 VRB03KT 9999 SCT017
Wind
  • Variable at 3 KTS
Cloud Levels
  • Scattered at 1,700' AGL

Mar-21@
02:00 UTC

Mar-21 @ 02:00 UTC

Mar-21@
18:00 UTC

Mar-21 @ 18:00 UTC

BECMG 2102/2103 10012KT

Becoming

Becoming Conditions expected by Thu, Mar 21, 2019 @ 03:00 UTC

Wind
  • 100° at 12 KTS
Cloud Levels
  • Scattered at 1,700' AGL